sensor_id;sensor_type;location;lat;lon;timestamp;temperature;humidity
53520;DHT22;39397;53.204;5.778;2023-08-12T00:01:19;19.10;99.90
53520;DHT22;39397;53.204;5.778;2023-08-12T00:03:47;19.10;99.90
53520;DHT22;39397;53.204;5.778;2023-08-12T00:06:14;19.00;99.90
53520;DHT22;39397;53.204;5.778;2023-08-12T00:08:39;19.00;99.90
53520;DHT22;39397;53.204;5.778;2023-08-12T00:11:05;18.90;99.90
53520;DHT22;39397;53.204;5.778;2023-08-12T00:13:31;19.00;99.90
53520;DHT22;39397;53.204;5.778;2023-08-12T00:15:56;18.90;99.90
53520;DHT22;39397;53.204;5.778;2023-08-12T00:18:22;19.00;99.90
53520;DHT22;39397;53.204;5.778;2023-08-12T00:20:48;19.00;99.90
53520;DHT22;39397;53.204;5.778;2023-08-12T00:23:14;19.10;99.90
53520;DHT22;39397;53.204;5.778;2023-08-12T00:25:39;19.00;99.90
53520;DHT22;39397;53.204;5.778;2023-08-12T00:28:05;19.40;99.90
53520;DHT22;39397;53.204;5.778;2023-08-12T00:30:31;19.00;99.90
53520;DHT22;39397;53.204;5.778;2023-08-12T00:32:56;19.20;99.90
53520;DHT22;39397;53.204;5.778;2023-08-12T00:35:22;19.20;99.90
53520;DHT22;39397;53.204;5.778;2023-08-12T00:37:48;19.20;99.90
53520;DHT22;39397;53.204;5.778;2023-08-12T00:40:14;19.20;99.90
53520;DHT22;39397;53.204;5.778;2023-08-12T00:42:39;19.30;99.90
53520;DHT22;39397;53.204;5.778;2023-08-12T00:45:09;19.20;99.90
53520;DHT22;39397;53.204;5.778;2023-08-12T00:47:36;19.20;99.90
53520;DHT22;39397;53.204;5.778;2023-08-12T00:50:02;19.10;99.90
53520;DHT22;39397;53.204;5.778;2023-08-12T00:52:28;19.10;99.90
53520;DHT22;39397;53.204;5.778;2023-08-12T00:54:54;19.00;99.90
53520;DHT22;39397;53.204;5.778;2023-08-12T00:57:19;19.00;99.90
53520;DHT22;39397;53.204;5.778;2023-08-12T00:59:45;19.00;99.90
53520;DHT22;39397;53.204;5.778;2023-08-12T01:02:12;19.10;99.90
53520;DHT22;39397;53.204;5.778;2023-08-12T01:04:38;18.80;99.90
53520;DHT22;39397;53.204;5.778;2023-08-12T01:07:03;18.90;99.90
53520;DHT22;39397;53.204;5.778;2023-08-12T01:09:30;18.90;99.90
53520;DHT22;39397;53.204;5.778;2023-08-12T01:12:06;18.80;99.90
53520;DHT22;39397;53.204;5.778;2023-08-12T01:17:12;18.80;99.90
53520;DHT22;39397;53.204;5.778;2023-08-12T01:19:40;18.70;99.90
53520;DHT22;39397;53.204;5.778;2023-08-12T01:22:11;18.60;99.90
53520;DHT22;39397;53.204;5.778;2023-08-12T01:24:42;18.70;99.90
53520;DHT22;39397;53.204;5.778;2023-08-12T01:27:09;18.70;99.90
53520;DHT22;39397;53.204;5.778;2023-08-12T01:29:45;18.60;99.90
53520;DHT22;39397;53.204;5.778;2023-08-12T01:32:22;18.70;99.90
53520;DHT22;39397;53.204;5.778;2023-08-12T01:35:14;17.20;99.90
53520;DHT22;39397;53.204;5.778;2023-08-12T01:37:43;18.60;99.90
53520;DHT22;39397;53.204;5.778;2023-08-12T01:40:11;18.60;99.90
53520;DHT22;39397;53.204;5.778;2023-08-12T01:42:39;18.60;99.90
53520;DHT22;39397;53.204;5.778;2023-08-12T01:45:06;18.60;99.90
53520;DHT22;39397;53.204;5.778;2023-08-12T01:47:31;18.60;99.90
53520;DHT22;39397;53.204;5.778;2023-08-12T01:50:00;18.60;99.90
53520;DHT22;39397;53.204;5.778;2023-08-12T01:52:26;17.10;99.90
53520;DHT22;39397;53.204;5.778;2023-08-12T01:54:52;18.60;99.90
53520;DHT22;39397;53.204;5.778;2023-08-12T01:57:17;18.60;99.90
53520;DHT22;39397;53.204;5.778;2023-08-12T01:59:43;18.70;99.90
53520;DHT22;39397;53.204;5.778;2023-08-12T02:02:11;18.70;99.90
53520;DHT22;39397;53.204;5.778;2023-08-12T02:04:39;18.80;99.90
53520;DHT22;39397;53.204;5.778;2023-08-12T02:07:05;18.80;99.90
53520;DHT22;39397;53.204;5.778;2023-08-12T02:09:30;18.90;99.90
53520;DHT22;39397;53.204;5.778;2023-08-12T02:11:56;18.80;99.90
53520;DHT22;39397;53.204;5.778;2023-08-12T02:14:22;18.90;99.90
53520;DHT22;39397;53.204;5.778;2023-08-12T02:16:48;19.00;99.90
53520;DHT22;39397;53.204;5.778;2023-08-12T02:19:14;19.00;99.90
53520;DHT22;39397;53.204;5.778;2023-08-12T02:21:40;19.00;99.90
53520;DHT22;39397;53.204;5.778;2023-08-12T02:24:07;19.00;99.90
53520;DHT22;39397;53.204;5.778;2023-08-12T02:26:33;19.00;99.90
53520;DHT22;39397;53.204;5.778;2023-08-12T02:28:59;19.00;99.90
53520;DHT22;39397;53.204;5.778;2023-08-12T02:31:25;19.10;99.90
53520;DHT22;39397;53.204;5.778;2023-08-12T02:33:50;19.10;99.90
53520;DHT22;39397;53.204;5.778;2023-08-12T02:36:16;19.10;99.90
53520;DHT22;39397;53.204;5.778;2023-08-12T02:38:42;19.10;99.90
53520;DHT22;39397;53.204;5.778;2023-08-12T02:41:08;19.20;99.90
53520;DHT22;39397;53.204;5.778;2023-08-12T02:43:33;17.20;99.90
53520;DHT22;39397;53.204;5.778;2023-08-12T02:45:59;19.20;99.90
53520;DHT22;39397;53.204;5.778;2023-08-12T02:48:25;19.10;99.90
53520;DHT22;39397;53.204;5.778;2023-08-12T02:50:51;19.20;99.90
53520;DHT22;39397;53.204;5.778;2023-08-12T02:53:17;19.20;99.90
53520;DHT22;39397;53.204;5.778;2023-08-12T02:55:45;19.20;99.90
53520;DHT22;39397;53.204;5.778;2023-08-12T02:58:10;19.20;99.90
53520;DHT22;39397;53.204;5.778;2023-08-12T03:00:36;19.20;99.90
53520;DHT22;39397;53.204;5.778;2023-08-12T03:03:02;19.30;99.90
53520;DHT22;39397;53.204;5.778;2023-08-12T03:05:28;19.30;99.90
53520;DHT22;39397;53.204;5.778;2023-08-12T03:07:54;19.20;99.90
53520;DHT22;39397;53.204;5.778;2023-08-12T03:10:19;19.30;99.90
53520;DHT22;39397;53.204;5.778;2023-08-12T03:12:45;19.30;99.90
53520;DHT22;39397;53.204;5.778;2023-08-12T03:15:11;19.30;99.90
53520;DHT22;39397;53.204;5.778;2023-08-12T03:17:37;19.30;99.90
53520;DHT22;39397;53.204;5.778;2023-08-12T03:20:07;19.30;99.90
53520;DHT22;39397;53.204;5.778;2023-08-12T03:22:35;19.40;99.90
53520;DHT22;39397;53.204;5.778;2023-08-12T03:25:01;19.40;99.90
53520;DHT22;39397;53.204;5.778;2023-08-12T03:27:27;19.30;99.90
53520;DHT22;39397;53.204;5.778;2023-08-12T03:29:53;19.30;99.90
53520;DHT22;39397;53.204;5.778;2023-08-12T03:32:19;19.40;99.90
53520;DHT22;39397;53.204;5.778;2023-08-12T03:34:45;19.30;99.90
53520;DHT22;39397;53.204;5.778;2023-08-12T03:37:11;19.40;99.90
53520;DHT22;39397;53.204;5.778;2023-08-12T03:39:38;19.50;99.90
53520;DHT22;39397;53.204;5.778;2023-08-12T03:42:03;19.40;99.90
53520;DHT22;39397;53.204;5.778;2023-08-12T03:44:29;19.40;99.90
53520;DHT22;39397;53.204;5.778;2023-08-12T03:46:55;19.40;99.90
53520;DHT22;39397;53.204;5.778;2023-08-12T03:49:21;19.40;99.90
53520;DHT22;39397;53.204;5.778;2023-08-12T03:51:46;19.40;99.90
53520;DHT22;39397;53.204;5.778;2023-08-12T03:54:12;19.40;99.90
53520;DHT22;39397;53.204;5.778;2023-08-12T03:56:38;19.50;99.90
53520;DHT22;39397;53.204;5.778;2023-08-12T03:59:04;19.50;99.90
53520;DHT22;39397;53.204;5.778;2023-08-12T04:01:30;19.40;99.90
53520;DHT22;39397;53.204;5.778;2023-08-12T04:03:55;19.50;99.90
53520;DHT22;39397;53.204;5.778;2023-08-12T04:06:21;19.50;99.90
53520;DHT22;39397;53.204;5.778;2023-08-12T04:08:47;19.40;99.90
53520;DHT22;39397;53.204;5.778;2023-08-12T04:11:13;19.50;99.90
53520;DHT22;39397;53.204;5.778;2023-08-12T04:13:38;19.40;99.90
53520;DHT22;39397;53.204;5.778;2023-08-12T04:16:04;19.40;99.90
53520;DHT22;39397;53.204;5.778;2023-08-12T04:18:30;19.40;99.90
53520;DHT22;39397;53.204;5.778;2023-08-12T04:20:56;19.50;99.90
53520;DHT22;39397;53.204;5.778;2023-08-12T04:23:21;19.50;99.90
53520;DHT22;39397;53.204;5.778;2023-08-12T04:25:48;19.50;99.90
53520;DHT22;39397;53.204;5.778;2023-08-12T04:28:15;19.40;99.90
53520;DHT22;39397;53.204;5.778;2023-08-12T04:30:44;19.50;99.90
53520;DHT22;39397;53.204;5.778;2023-08-12T04:33:11;19.70;99.90
53520;DHT22;39397;53.204;5.778;2023-08-12T04:35:38;19.50;99.90
53520;DHT22;39397;53.204;5.778;2023-08-12T04:38:04;19.50;99.90
53520;DHT22;39397;53.204;5.778;2023-08-12T04:40:29;19.50;99.90
53520;DHT22;39397;53.204;5.778;2023-08-12T04:42:55;19.50;99.90
53520;DHT22;39397;53.204;5.778;2023-08-12T04:45:21;19.50;99.90
53520;DHT22;39397;53.204;5.778;2023-08-12T04:47:47;19.50;99.90
53520;DHT22;39397;53.204;5.778;2023-08-12T04:50:13;19.60;99.90
53520;DHT22;39397;53.204;5.778;2023-08-12T04:52:38;19.60;99.90
53520;DHT22;39397;53.204;5.778;2023-08-12T04:55:04;19.60;99.90
53520;DHT22;39397;53.204;5.778;2023-08-12T04:57:30;19.70;99.90
53520;DHT22;39397;53.204;5.778;2023-08-12T04:59:56;19.70;99.90
53520;DHT22;39397;53.204;5.778;2023-08-12T05:02:22;19.00;99.90
53520;DHT22;39397;53.204;5.778;2023-08-12T05:04:49;19.80;99.90
53520;DHT22;39397;53.204;5.778;2023-08-12T05:07:16;20.00;99.90
53520;DHT22;39397;53.204;5.778;2023-08-12T05:09:42;18.60;99.90
53520;DHT22;39397;53.204;5.778;2023-08-12T05:12:11;20.00;99.90
53520;DHT22;39397;53.204;5.778;2023-08-12T05:17:05;20.10;99.90
53520;DHT22;39397;53.204;5.778;2023-08-12T05:19:31;20.20;99.90
53520;DHT22;39397;53.204;5.778;2023-08-12T05:21:57;20.30;99.90
53520;DHT22;39397;53.204;5.778;2023-08-12T05:24:23;20.40;99.90
53520;DHT22;39397;53.204;5.778;2023-08-12T05:26:49;20.40;99.90
53520;DHT22;39397;53.204;5.778;2023-08-12T05:29:14;20.40;99.90
53520;DHT22;39397;53.204;5.778;2023-08-12T05:31:40;20.30;99.90
53520;DHT22;39397;53.204;5.778;2023-08-12T05:34:06;20.20;99.90
53520;DHT22;39397;53.204;5.778;2023-08-12T05:36:32;20.40;99.90
53520;DHT22;39397;53.204;5.778;2023-08-12T05:38:58;20.50;99.90
53520;DHT22;39397;53.204;5.778;2023-08-12T05:41:25;20.40;99.90
53520;DHT22;39397;53.204;5.778;2023-08-12T05:43:50;20.50;99.90
53520;DHT22;39397;53.204;5.778;2023-08-12T05:46:17;20.40;99.90
53520;DHT22;39397;53.204;5.778;2023-08-12T05:48:42;20.50;99.90
53520;DHT22;39397;53.204;5.778;2023-08-12T05:51:08;20.40;99.90
53520;DHT22;39397;53.204;5.778;2023-08-12T05:53:36;20.50;99.90
53520;DHT22;39397;53.204;5.778;2023-08-12T05:56:02;20.50;99.90
53520;DHT22;39397;53.204;5.778;2023-08-12T05:58:27;20.60;99.90
53520;DHT22;39397;53.204;5.778;2023-08-12T06:00:53;20.50;99.90
53520;DHT22;39397;53.204;5.778;2023-08-12T06:03:19;20.50;99.90
53520;DHT22;39397;53.204;5.778;2023-08-12T06:05:46;20.60;99.90
53520;DHT22;39397;53.204;5.778;2023-08-12T06:08:15;20.40;99.90
53520;DHT22;39397;53.204;5.778;2023-08-12T06:10:41;20.60;99.90
53520;DHT22;39397;53.204;5.778;2023-08-12T06:13:07;20.60;99.90
53520;DHT22;39397;53.204;5.778;2023-08-12T06:15:33;20.60;99.90
53520;DHT22;39397;53.204;5.778;2023-08-12T06:17:59;20.70;99.90
53520;DHT22;39397;53.204;5.778;2023-08-12T06:20:25;20.60;99.90
53520;DHT22;39397;53.204;5.778;2023-08-12T06:22:51;20.60;99.90
53520;DHT22;39397;53.204;5.778;2023-08-12T06:25:18;20.70;99.90
53520;DHT22;39397;53.204;5.778;2023-08-12T06:27:45;20.70;99.90
53520;DHT22;39397;53.204;5.778;2023-08-12T06:30:12;20.60;99.90
53520;DHT22;39397;53.204;5.778;2023-08-12T06:32:37;20.60;99.90
53520;DHT22;39397;53.204;5.778;2023-08-12T06:35:04;20.60;99.90
53520;DHT22;39397;53.204;5.778;2023-08-12T06:37:30;20.70;99.90
53520;DHT22;39397;53.204;5.778;2023-08-12T06:39:55;20.60;99.90
53520;DHT22;39397;53.204;5.778;2023-08-12T06:42:22;20.60;99.90
53520;DHT22;39397;53.204;5.778;2023-08-12T06:44:57;20.70;99.90
53520;DHT22;39397;53.204;5.778;2023-08-12T06:47:23;20.70;99.90
53520;DHT22;39397;53.204;5.778;2023-08-12T06:49:49;20.80;99.90
53520;DHT22;39397;53.204;5.778;2023-08-12T06:52:15;20.70;99.90
53520;DHT22;39397;53.204;5.778;2023-08-12T06:54:41;20.80;99.90
53520;DHT22;39397;53.204;5.778;2023-08-12T06:57:07;20.80;99.90
53520;DHT22;39397;53.204;5.778;2023-08-12T06:59:33;21.00;99.90
53520;DHT22;39397;53.204;5.778;2023-08-12T07:01:59;21.00;99.90
53520;DHT22;39397;53.204;5.778;2023-08-12T07:04:24;20.90;99.90
53520;DHT22;39397;53.204;5.778;2023-08-12T07:06:50;21.00;99.90
53520;DHT22;39397;53.204;5.778;2023-08-12T07:09:16;21.00;99.90
53520;DHT22;39397;53.204;5.778;2023-08-12T07:11:42;21.20;99.90
53520;DHT22;39397;53.204;5.778;2023-08-12T07:14:08;21.20;99.90
53520;DHT22;39397;53.204;5.778;2023-08-12T07:16:33;21.20;99.90
53520;DHT22;39397;53.204;5.778;2023-08-12T07:18:59;21.20;99.90
53520;DHT22;39397;53.204;5.778;2023-08-12T07:21:25;21.30;99.90
53520;DHT22;39397;53.204;5.778;2023-08-12T07:23:51;21.20;99.90
53520;DHT22;39397;53.204;5.778;2023-08-12T07:26:17;21.30;99.90
53520;DHT22;39397;53.204;5.778;2023-08-12T07:28:42;21.30;99.90
53520;DHT22;39397;53.204;5.778;2023-08-12T07:31:08;21.30;99.90
53520;DHT22;39397;53.204;5.778;2023-08-12T07:33:34;21.30;99.90
53520;DHT22;39397;53.204;5.778;2023-08-12T07:36:01;21.30;99.90
53520;DHT22;39397;53.204;5.778;2023-08-12T07:38:27;21.30;99.90
53520;DHT22;39397;53.204;5.778;2023-08-12T07:40:53;21.20;99.90
53520;DHT22;39397;53.204;5.778;2023-08-12T07:43:19;21.10;99.90
53520;DHT22;39397;53.204;5.778;2023-08-12T07:45:45;21.10;99.90
53520;DHT22;39397;53.204;5.778;2023-08-12T07:48:10;21.00;99.90
53520;DHT22;39397;53.204;5.778;2023-08-12T07:50:36;21.00;99.90
53520;DHT22;39397;53.204;5.778;2023-08-12T07:53:02;21.00;99.90
53520;DHT22;39397;53.204;5.778;2023-08-12T07:55:28;21.10;99.90
53520;DHT22;39397;53.204;5.778;2023-08-12T07:57:55;21.00;99.90
53520;DHT22;39397;53.204;5.778;2023-08-12T08:00:20;19.50;99.90
53520;DHT22;39397;53.204;5.778;2023-08-12T08:02:46;20.90;99.90
53520;DHT22;39397;53.204;5.778;2023-08-12T08:05:12;20.80;99.90
53520;DHT22;39397;53.204;5.778;2023-08-12T08:07:38;20.80;99.90
53520;DHT22;39397;53.204;5.778;2023-08-12T08:10:03;20.90;99.90
53520;DHT22;39397;53.204;5.778;2023-08-12T08:12:29;20.80;99.90
53520;DHT22;39397;53.204;5.778;2023-08-12T08:14:55;20.70;99.90
53520;DHT22;39397;53.204;5.778;2023-08-12T08:17:21;20.80;99.90
53520;DHT22;39397;53.204;5.778;2023-08-12T08:19:46;20.80;99.90
53520;DHT22;39397;53.204;5.778;2023-08-12T08:22:12;20.70;99.90
53520;DHT22;39397;53.204;5.778;2023-08-12T08:24:38;20.60;99.90
53520;DHT22;39397;53.204;5.778;2023-08-12T08:27:04;20.60;99.90
53520;DHT22;39397;53.204;5.778;2023-08-12T08:29:30;20.60;99.90
53520;DHT22;39397;53.204;5.778;2023-08-12T08:31:55;20.70;99.90
53520;DHT22;39397;53.204;5.778;2023-08-12T08:34:21;20.60;99.90
53520;DHT22;39397;53.204;5.778;2023-08-12T08:36:47;20.70;99.90
53520;DHT22;39397;53.204;5.778;2023-08-12T08:39:13;20.50;99.90
53520;DHT22;39397;53.204;5.778;2023-08-12T08:41:39;20.60;99.90
53520;DHT22;39397;53.204;5.778;2023-08-12T08:44:08;20.50;99.90
53520;DHT22;39397;53.204;5.778;2023-08-12T08:46:34;20.60;99.90
53520;DHT22;39397;53.204;5.778;2023-08-12T08:49:00;20.50;99.90
53520;DHT22;39397;53.204;5.778;2023-08-12T08:51:29;20.40;99.90
53520;DHT22;39397;53.204;5.778;2023-08-12T08:53:56;20.40;99.90
53520;DHT22;39397;53.204;5.778;2023-08-12T08:56:22;20.50;99.90
53520;DHT22;39397;53.204;5.778;2023-08-12T08:58:48;19.60;99.90
53520;DHT22;39397;53.204;5.778;2023-08-12T09:01:17;20.40;99.90
53520;DHT22;39397;53.204;5.778;2023-08-12T09:03:43;20.60;99.90
53520;DHT22;39397;53.204;5.778;2023-08-12T09:06:09;20.60;99.90
53520;DHT22;39397;53.204;5.778;2023-08-12T09:08:36;20.60;99.90
53520;DHT22;39397;53.204;5.778;2023-08-12T09:11:03;20.70;99.90
53520;DHT22;39397;53.204;5.778;2023-08-12T09:13:29;20.60;99.90
53520;DHT22;39397;53.204;5.778;2023-08-12T09:15:55;20.60;99.90
53520;DHT22;39397;53.204;5.778;2023-08-12T09:18:21;20.60;99.90
53520;DHT22;39397;53.204;5.778;2023-08-12T09:20:53;20.60;99.90
53520;DHT22;39397;53.204;5.778;2023-08-12T09:23:19;20.60;99.90
53520;DHT22;39397;53.204;5.778;2023-08-12T09:25:45;20.50;99.90
53520;DHT22;39397;53.204;5.778;2023-08-12T09:28:11;20.60;99.90
53520;DHT22;39397;53.204;5.778;2023-08-12T09:30:38;20.50;99.90
53520;DHT22;39397;53.204;5.778;2023-08-12T09:33:05;20.50;99.90
53520;DHT22;39397;53.204;5.778;2023-08-12T09:35:40;20.40;99.90
53520;DHT22;39397;53.204;5.778;2023-08-12T09:38:12;20.30;99.90
53520;DHT22;39397;53.204;5.778;2023-08-12T09:40:41;20.20;99.90
53520;DHT22;39397;53.204;5.778;2023-08-12T09:43:07;20.00;99.90
53520;DHT22;39397;53.204;5.778;2023-08-12T09:45:34;19.80;99.90
53520;DHT22;39397;53.204;5.778;2023-08-12T09:48:00;19.60;99.90
53520;DHT22;39397;53.204;5.778;2023-08-12T09:50:27;19.50;99.90
53520;DHT22;39397;53.204;5.778;2023-08-12T09:52:54;19.40;99.90
53520;DHT22;39397;53.204;5.778;2023-08-12T09:55:22;19.10;99.90
53520;DHT22;39397;53.204;5.778;2023-08-12T09:57:51;19.20;99.90
53520;DHT22;39397;53.204;5.778;2023-08-12T10:00:18;19.10;99.90
53520;DHT22;39397;53.204;5.778;2023-08-12T10:02:46;19.00;99.90
53520;DHT22;39397;53.204;5.778;2023-08-12T10:05:19;19.00;99.90
53520;DHT22;39397;53.204;5.778;2023-08-12T10:07:47;18.90;99.90
53520;DHT22;39397;53.204;5.778;2023-08-12T10:10:14;18.90;99.90
53520;DHT22;39397;53.204;5.778;2023-08-12T10:12:41;18.90;99.90
53520;DHT22;39397;53.204;5.778;2023-08-12T10:15:07;18.90;99.90
53520;DHT22;39397;53.204;5.778;2023-08-12T10:17:34;18.80;99.90
53520;DHT22;39397;53.204;5.778;2023-08-12T10:20:03;18.90;99.90
53520;DHT22;39397;53.204;5.778;2023-08-12T10:22:30;19.00;99.90
53520;DHT22;39397;53.204;5.778;2023-08-12T10:25:01;19.00;99.90
53520;DHT22;39397;53.204;5.778;2023-08-12T10:27:28;19.00;99.90
53520;DHT22;39397;53.204;5.778;2023-08-12T10:29:56;19.10;99.90
53520;DHT22;39397;53.204;5.778;2023-08-12T10:32:23;19.10;99.90
53520;DHT22;39397;53.204;5.778;2023-08-12T10:34:57;19.10;99.90
53520;DHT22;39397;53.204;5.778;2023-08-12T10:37:24;19.20;99.90
53520;DHT22;39397;53.204;5.778;2023-08-12T10:39:52;19.20;99.90
53520;DHT22;39397;53.204;5.778;2023-08-12T10:42:46;19.20;99.90
53520;DHT22;39397;53.204;5.778;2023-08-12T10:45:15;19.20;99.90
53520;DHT22;39397;53.204;5.778;2023-08-12T10:47:42;19.30;99.90
53520;DHT22;39397;53.204;5.778;2023-08-12T10:50:20;19.30;99.90
53520;DHT22;39397;53.204;5.778;2023-08-12T10:52:46;19.40;99.90
53520;DHT22;39397;53.204;5.778;2023-08-12T10:55:23;19.20;99.90
53520;DHT22;39397;53.204;5.778;2023-08-12T10:57:54;19.30;99.90
53520;DHT22;39397;53.204;5.778;2023-08-12T11:00:29;19.10;99.90
53520;DHT22;39397;53.204;5.778;2023-08-12T11:02:56;19.10;99.90
53520;DHT22;39397;53.204;5.778;2023-08-12T11:05:23;19.00;99.90
53520;DHT22;39397;53.204;5.778;2023-08-12T11:10:26;18.90;99.90
53520;DHT22;39397;53.204;5.778;2023-08-12T11:15:18;18.80;99.90
53520;DHT22;39397;53.204;5.778;2023-08-12T11:17:46;18.80;99.90
53520;DHT22;39397;53.204;5.778;2023-08-12T11:20:13;19.00;99.90
53520;DHT22;39397;53.204;5.778;2023-08-12T11:22:40;18.90;99.90
53520;DHT22;39397;53.204;5.778;2023-08-12T11:25:11;19.20;99.90
53520;DHT22;39397;53.204;5.778;2023-08-12T11:27:43;19.20;99.90
53520;DHT22;39397;53.204;5.778;2023-08-12T11:30:11;19.20;99.90
53520;DHT22;39397;53.204;5.778;2023-08-12T11:32:38;19.30;99.90
53520;DHT22;39397;53.204;5.778;2023-08-12T11:35:06;19.30;99.90
53520;DHT22;39397;53.204;5.778;2023-08-12T11:37:33;19.40;99.90
53520;DHT22;39397;53.204;5.778;2023-08-12T11:39:58;19.40;99.90
53520;DHT22;39397;53.204;5.778;2023-08-12T11:42:24;19.50;99.90
53520;DHT22;39397;53.204;5.778;2023-08-12T11:44:50;19.40;99.90
53520;DHT22;39397;53.204;5.778;2023-08-12T11:47:16;19.50;99.90
53520;DHT22;39397;53.204;5.778;2023-08-12T11:49:41;19.70;99.90
53520;DHT22;39397;53.204;5.778;2023-08-12T11:52:09;19.90;99.90
53520;DHT22;39397;53.204;5.778;2023-08-12T11:54:35;20.10;99.90
53520;DHT22;39397;53.204;5.778;2023-08-12T11:57:01;20.40;99.90
53520;DHT22;39397;53.204;5.778;2023-08-12T11:59:27;20.60;99.90
53520;DHT22;39397;53.204;5.778;2023-08-12T12:01:54;20.80;99.90
53520;DHT22;39397;53.204;5.778;2023-08-12T12:04:21;21.10;99.90
53520;DHT22;39397;53.204;5.778;2023-08-12T12:06:47;21.10;99.90
53520;DHT22;39397;53.204;5.778;2023-08-12T12:09:14;21.30;99.90
53520;DHT22;39397;53.204;5.778;2023-08-12T12:11:41;21.50;99.90
53520;DHT22;39397;53.204;5.778;2023-08-12T12:14:08;21.60;99.90
53520;DHT22;39397;53.204;5.778;2023-08-12T12:16:42;21.70;99.90
53520;DHT22;39397;53.204;5.778;2023-08-12T12:19:21;21.80;99.90
53520;DHT22;39397;53.204;5.778;2023-08-12T12:21:53;21.90;99.90
53520;DHT22;39397;53.204;5.778;2023-08-12T12:24:20;21.00;99.90
53520;DHT22;39397;53.204;5.778;2023-08-12T12:26:46;21.90;99.90
53520;DHT22;39397;53.204;5.778;2023-08-12T12:29:12;22.00;99.90
53520;DHT22;39397;53.204;5.778;2023-08-12T12:31:40;22.30;99.90
53520;DHT22;39397;53.204;5.778;2023-08-12T12:34:07;22.40;99.90
53520;DHT22;39397;53.204;5.778;2023-08-12T12:36:36;22.50;99.90
53520;DHT22;39397;53.204;5.778;2023-08-12T12:39:03;22.40;99.90
53520;DHT22;39397;53.204;5.778;2023-08-12T12:41:29;22.20;99.90
53520;DHT22;39397;53.204;5.778;2023-08-12T12:43:55;22.40;99.90
53520;DHT22;39397;53.204;5.778;2023-08-12T12:46:21;22.40;99.90
53520;DHT22;39397;53.204;5.778;2023-08-12T12:48:47;22.40;99.90
53520;DHT22;39397;53.204;5.778;2023-08-12T12:51:13;22.40;99.90
53520;DHT22;39397;53.204;5.778;2023-08-12T12:53:39;22.30;99.90
53520;DHT22;39397;53.204;5.778;2023-08-12T12:56:05;22.50;99.90
53520;DHT22;39397;53.204;5.778;2023-08-12T12:58:32;23.80;99.90
53520;DHT22;39397;53.204;5.778;2023-08-12T13:00:59;22.50;99.90
53520;DHT22;39397;53.204;5.778;2023-08-12T13:03:25;22.70;99.90
53520;DHT22;39397;53.204;5.778;2023-08-12T13:05:51;22.70;99.90
53520;DHT22;39397;53.204;5.778;2023-08-12T13:08:16;22.60;99.90
53520;DHT22;39397;53.204;5.778;2023-08-12T13:10:42;22.60;99.90
53520;DHT22;39397;53.204;5.778;2023-08-12T13:13:08;22.60;99.90
53520;DHT22;39397;53.204;5.778;2023-08-12T13:15:34;22.50;99.90
53520;DHT22;39397;53.204;5.778;2023-08-12T13:18:00;22.60;99.90
53520;DHT22;39397;53.204;5.778;2023-08-12T13:20:26;22.50;99.90
53520;DHT22;39397;53.204;5.778;2023-08-12T13:22:51;22.50;99.90
53520;DHT22;39397;53.204;5.778;2023-08-12T13:25:17;22.40;99.90
53520;DHT22;39397;53.204;5.778;2023-08-12T13:27:43;22.60;99.90
53520;DHT22;39397;53.204;5.778;2023-08-12T13:30:09;22.70;99.90
53520;DHT22;39397;53.204;5.778;2023-08-12T13:32:37;22.70;99.90
53520;DHT22;39397;53.204;5.778;2023-08-12T13:35:03;22.80;99.90
53520;DHT22;39397;53.204;5.778;2023-08-12T13:37:29;22.90;99.90
53520;DHT22;39397;53.204;5.778;2023-08-12T13:39:55;23.00;99.90
53520;DHT22;39397;53.204;5.778;2023-08-12T13:42:20;22.90;99.90
53520;DHT22;39397;53.204;5.778;2023-08-12T13:44:46;22.90;99.90
53520;DHT22;39397;53.204;5.778;2023-08-12T13:47:12;22.80;99.90
53520;DHT22;39397;53.204;5.778;2023-08-12T13:49:38;22.80;99.90
53520;DHT22;39397;53.204;5.778;2023-08-12T13:52:03;22.80;99.90
53520;DHT22;39397;53.204;5.778;2023-08-12T13:54:31;22.90;99.90
53520;DHT22;39397;53.204;5.778;2023-08-12T13:56:56;22.90;99.90
53520;DHT22;39397;53.204;5.778;2023-08-12T13:59:23;22.90;99.90
53520;DHT22;39397;53.204;5.778;2023-08-12T14:01:48;22.80;99.90
53520;DHT22;39397;53.204;5.778;2023-08-12T14:04:15;22.90;99.90
53520;DHT22;39397;53.204;5.778;2023-08-12T14:06:40;23.10;99.90
53520;DHT22;39397;53.204;5.778;2023-08-12T14:09:06;23.10;99.90
53520;DHT22;39397;53.204;5.778;2023-08-12T14:11:33;23.10;99.90
53520;DHT22;39397;53.204;5.778;2023-08-12T14:13:59;23.20;99.90
53520;DHT22;39397;53.204;5.778;2023-08-12T14:16:25;23.20;99.90
53520;DHT22;39397;53.204;5.778;2023-08-12T14:18:51;23.20;99.90
53520;DHT22;39397;53.204;5.778;2023-08-12T14:21:16;23.20;99.90
53520;DHT22;39397;53.204;5.778;2023-08-12T14:23:42;23.30;99.90
53520;DHT22;39397;53.204;5.778;2023-08-12T14:26:08;23.40;99.90
53520;DHT22;39397;53.204;5.778;2023-08-12T14:28:33;23.50;99.90
53520;DHT22;39397;53.204;5.778;2023-08-12T14:30:59;23.60;99.90
53520;DHT22;39397;53.204;5.778;2023-08-12T14:33:25;23.50;99.90
53520;DHT22;39397;53.204;5.778;2023-08-12T14:35:53;23.50;99.90
53520;DHT22;39397;53.204;5.778;2023-08-12T14:38:19;23.60;99.90
53520;DHT22;39397;53.204;5.778;2023-08-12T14:40:48;23.80;99.90
53520;DHT22;39397;53.204;5.778;2023-08-12T14:43:14;23.70;99.90
53520;DHT22;39397;53.204;5.778;2023-08-12T14:45:40;23.80;99.90
53520;DHT22;39397;53.204;5.778;2023-08-12T14:48:06;23.90;99.90
53520;DHT22;39397;53.204;5.778;2023-08-12T14:50:32;24.10;99.90
53520;DHT22;39397;53.204;5.778;2023-08-12T14:52:57;24.20;99.90
53520;DHT22;39397;53.204;5.778;2023-08-12T14:55:23;24.30;99.90
53520;DHT22;39397;53.204;5.778;2023-08-12T14:57:49;24.50;99.90
53520;DHT22;39397;53.204;5.778;2023-08-12T15:00:15;24.40;99.90
53520;DHT22;39397;53.204;5.778;2023-08-12T15:02:40;24.50;99.90
53520;DHT22;39397;53.204;5.778;2023-08-12T15:05:06;24.50;99.90
53520;DHT22;39397;53.204;5.778;2023-08-12T15:07:33;24.50;99.90
53520;DHT22;39397;53.204;5.778;2023-08-12T15:09:58;24.70;99.90
53520;DHT22;39397;53.204;5.778;2023-08-12T15:12:25;24.70;99.90
53520;DHT22;39397;53.204;5.778;2023-08-12T15:14:52;24.80;99.90
53520;DHT22;39397;53.204;5.778;2023-08-12T15:17:18;24.70;99.90
53520;DHT22;39397;53.204;5.778;2023-08-12T15:19:44;24.70;99.90
53520;DHT22;39397;53.204;5.778;2023-08-12T15:22:09;24.90;99.90
53520;DHT22;39397;53.204;5.778;2023-08-12T15:24:35;25.10;99.90
53520;DHT22;39397;53.204;5.778;2023-08-12T15:27:02;25.20;99.90
53520;DHT22;39397;53.204;5.778;2023-08-12T15:29:28;25.20;99.90
53520;DHT22;39397;53.204;5.778;2023-08-12T15:31:54;25.30;99.90
53520;DHT22;39397;53.204;5.778;2023-08-12T15:34:21;25.30;99.90
53520;DHT22;39397;53.204;5.778;2023-08-12T15:36:47;25.40;99.90